Time;durP1;ratioP1;P1;durP2;ratioP2;P2;SDS_P1;SDS_P2;PMS_P1;PMS_P2;Temp;Humidity;BMP_temperature;BMP_pressure;BME280_temperature;BME280_humidity;BME280_pressure;Samples;Min_cycle;Max_cycle;Signal;HPM_P1;HPM_P2
2023/08/12 00:01:49;;;;;;;7.13;3.37;;;20.00;99.90;;;;;;5095909;28;20365;-71
2023/08/12 00:04:16;;;;;;;7.33;3.20;;;20.00;99.90;;;;;;5095646;28;20050;-71
2023/08/12 00:06:42;;;;;;;9.20;2.90;;;20.00;99.90;;;;;;5095771;28;20168;-71
2023/08/12 00:09:11;;;;;;;8.70;3.37;;;20.00;99.90;;;;;;5095643;28;20147;-71
2023/08/12 00:11:37;;;;;;;6.83;3.20;;;20.00;99.90;;;;;;5094844;28;20040;-71
2023/08/12 00:14:04;;;;;;;6.83;3.00;;;20.00;99.90;;;;;;5095421;28;20118;-71
2023/08/12 00:16:29;;;;;;;7.63;3.43;;;20.00;99.90;;;;;;5095605;28;20043;-71
2023/08/12 00:18:55;;;;;;;6.37;3.40;;;20.00;99.90;;;;;;5095611;28;20044;-71
2023/08/12 00:21:21;;;;;;;6.97;3.57;;;20.00;99.90;;;;;;5095319;28;20096;-71
2023/08/12 00:23:49;;;;;;;6.83;3.83;;;20.00;99.90;;;;;;5095488;28;20044;-71
2023/08/12 00:26:15;;;;;;;5.90;3.00;;;19.90;99.90;;;;;;5095320;28;20150;-71
2023/08/12 00:28:41;;;;;;;8.17;3.27;;;20.00;99.90;;;;;;5094264;28;20086;-72
2023/08/12 00:31:07;;;;;;;8.70;3.60;;;20.00;99.90;;;;;;5094814;28;20048;-71
2023/08/12 00:33:32;;;;;;;5.67;3.23;;;19.90;99.90;;;;;;5095020;28;20498;-72
2023/08/12 00:35:58;;;;;;;8.23;3.57;;;19.90;99.90;;;;;;5095269;28;20091;-71
2023/08/12 00:38:24;;;;;;;6.00;3.90;;;19.90;99.90;;;;;;5095013;28;20365;-71
2023/08/12 00:40:50;;;;;;;8.80;4.40;;;19.90;99.90;;;;;;5095142;28;20460;-71
2023/08/12 00:43:15;;;;;;;7.20;3.83;;;19.90;99.90;;;;;;5077080;28;20125;-71
2023/08/12 00:45:41;;;;;;;7.70;3.53;;;19.90;99.90;;;;;;5095474;28;20040;-71
2023/08/12 00:48:08;;;;;;;8.73;4.47;;;19.90;99.90;;;;;;5094871;28;20073;-72
2023/08/12 00:50:36;;;;;;;6.97;4.20;;;19.80;99.90;;;;;;5094043;28;20048;-72
2023/08/12 00:53:02;;;;;;;7.53;3.97;;;19.80;99.90;;;;;;5094876;28;20065;-72
2023/08/12 00:55:27;;;;;;;7.20;4.00;;;19.80;99.90;;;;;;5095025;28;20044;-71
2023/08/12 00:57:53;;;;;;;7.97;4.17;;;19.80;99.90;;;;;;5092611;28;20470;-71
2023/08/12 01:00:23;;;;;;;7.87;4.40;;;19.80;99.90;;;;;;5094548;28;20044;-72
2023/08/12 01:02:49;;;;;;;7.20;3.90;;;19.80;99.90;;;;;;5094766;28;20062;-71
2023/08/12 01:05:18;;;;;;;8.37;4.40;;;19.80;99.90;;;;;;5094518;28;20044;-71
2023/08/12 01:07:46;;;;;;;8.03;4.27;;;19.80;99.90;;;;;;5094689;28;20044;-72
2023/08/12 01:10:15;;;;;;;9.00;4.50;;;19.80;99.90;;;;;;5094434;28;20513;-72
2023/08/12 01:12:59;;;;;;;9.17;4.37;;;19.70;99.90;;;;;;5093252;28;20040;-71
2023/08/12 01:15:26;;;;;;;8.20;4.20;;;19.70;99.90;;;;;;5094344;28;20043;-71
2023/08/12 01:17:55;;;;;;;6.33;4.20;;;19.70;99.90;;;;;;5093532;28;20040;-72
2023/08/12 01:20:24;;;;;;;8.20;4.63;;;19.70;99.90;;;;;;5093243;28;20044;-72
2023/08/12 01:23:07;;;;;;;6.57;3.97;;;19.70;99.90;;;;;;5093163;28;20468;-71
2023/08/12 01:25:32;;;;;;;7.57;4.23;;;19.70;99.90;;;;;;5094382;28;20043;-72
2023/08/12 01:27:58;;;;;;;8.07;4.47;;;19.60;99.90;;;;;;5094284;28;20044;-72
2023/08/12 01:30:24;;;;;;;11.90;4.50;;;19.60;99.90;;;;;;5092617;28;20044;-71
2023/08/12 01:32:58;;;;;;;7.80;4.40;;;19.50;99.90;;;;;;5094258;28;20094;-72
2023/08/12 01:35:26;;;;;;;7.50;4.23;;;19.50;99.90;;;;;;5094068;28;20424;-72
2023/08/12 01:37:54;;;;;;;8.73;4.33;;;19.50;99.90;;;;;;5094096;28;20040;-71
2023/08/12 01:40:21;;;;;;;9.30;4.67;;;19.50;99.90;;;;;;5092899;28;20141;-71
2023/08/12 01:42:48;;;;;;;7.17;4.37;;;19.40;99.90;;;;;;5092755;28;20036;-71
2023/08/12 01:45:13;;;;;;;10.03;4.90;;;19.40;99.90;;;;;;5093769;28;20044;-71
2023/08/12 01:47:43;;;;;;;8.63;4.50;;;19.40;99.90;;;;;;5093828;28;20043;-71
2023/08/12 01:50:09;;;;;;;7.90;4.90;;;19.40;99.90;;;;;;5092559;28;20498;-72
2023/08/12 01:52:35;;;;;;;9.00;5.33;;;19.40;99.90;;;;;;5093702;28;20076;-72
2023/08/12 01:55:01;;;;;;;10.00;5.40;;;19.40;99.90;;;;;;5093949;28;20083;-71
2023/08/12 01:57:27;;;;;;;8.67;5.70;;;19.30;99.90;;;;;;5093616;28;20123;-71
2023/08/12 01:59:52;;;;;;;7.93;5.67;;;19.40;99.90;;;;;;5093646;28;20055;-71
2023/08/12 02:02:18;;;;;;;8.67;5.60;;;19.40;99.90;;;;;;5093448;28;20044;-72
2023/08/12 02:04:44;;;;;;;9.17;5.93;;;19.40;99.90;;;;;;5093552;28;20082;-71
2023/08/12 02:07:10;;;;;;;11.03;5.40;;;19.40;99.90;;;;;;5093564;28;20040;-71
2023/08/12 02:09:36;;;;;;;9.07;5.70;;;19.40;99.90;;;;;;5093116;28;20040;-71
2023/08/12 02:12:01;;;;;;;10.27;5.90;;;19.40;99.90;;;;;;5093488;28;20040;-71
2023/08/12 02:14:27;;;;;;;7.60;5.27;;;19.40;99.90;;;;;;5093349;28;20395;-71
2023/08/12 02:16:53;;;;;;;10.80;6.17;;;19.40;99.90;;;;;;5093473;28;20368;-71
2023/08/12 02:19:18;;;;;;;8.70;5.27;;;19.40;99.90;;;;;;5093238;28;20080;-72
2023/08/12 02:21:44;;;;;;;6.70;4.93;;;19.30;99.90;;;;;;5093432;28;20560;-71
2023/08/12 02:24:10;;;;;;;9.90;5.67;;;19.40;99.90;;;;;;5092245;28;20051;-71
2023/08/12 02:26:36;;;;;;;10.83;6.17;;;19.40;99.90;;;;;;5075408;28;20047;-71
2023/08/12 02:29:02;;;;;;;8.27;5.97;;;19.40;99.90;;;;;;5093549;28;20442;-71
2023/08/12 02:31:28;;;;;;;8.97;5.70;;;19.40;99.90;;;;;;5092854;28;20225;-71
2023/08/12 02:33:54;;;;;;;9.53;6.23;;;19.40;99.90;;;;;;5093303;28;20048;-71
2023/08/12 02:36:19;;;;;;;9.60;5.93;;;19.40;99.90;;;;;;5093112;28;20084;-72
2023/08/12 02:38:45;;;;;;;12.60;6.17;;;19.40;99.90;;;;;;5092918;28;20369;-71
2023/08/12 02:41:11;;;;;;;9.50;5.93;;;19.30;99.90;;;;;;5092222;28;20047;-71
2023/08/12 02:43:36;;;;;;;9.13;5.70;;;19.40;99.90;;;;;;5093015;28;20039;-71
2023/08/12 02:46:02;;;;;;;8.60;5.70;;;19.40;99.90;;;;;;5092817;28;20553;-71
2023/08/12 02:48:28;;;;;;;8.80;5.50;;;19.30;99.90;;;;;;5092976;28;20044;-71
2023/08/12 02:50:53;;;;;;;10.50;5.67;;;19.40;99.90;;;;;;5092371;28;20044;-71
2023/08/12 02:53:19;;;;;;;11.07;6.17;;;19.30;99.90;;;;;;5092843;28;20067;-71
2023/08/12 02:55:45;;;;;;;10.00;5.73;;;19.30;99.90;;;;;;5093126;28;20048;-71
2023/08/12 02:58:11;;;;;;;10.83;6.30;;;19.30;99.90;;;;;;5091849;28;20044;-71
2023/08/12 03:00:37;;;;;;;9.90;5.70;;;19.30;99.90;;;;;;5092871;28;20048;-72
2023/08/12 03:03:04;;;;;;;9.07;5.90;;;19.20;99.90;;;;;;5093186;28;20044;-72
2023/08/12 03:05:32;;;;;;;8.90;5.70;;;19.20;99.90;;;;;;5092451;28;20388;-72
2023/08/12 03:08:01;;;;;;;9.70;6.73;;;19.20;99.90;;;;;;5092676;28;20507;-72
2023/08/12 03:10:27;;;;;;;11.20;6.00;;;19.20;99.90;;;;;;5092867;28;20047;-72
2023/08/12 03:12:53;;;;;;;9.00;6.13;;;19.20;99.90;;;;;;5093049;28;20115;-72
2023/08/12 03:15:19;;;;;;;13.17;6.33;;;19.20;99.90;;;;;;5092714;28;20044;-72
2023/08/12 03:17:45;;;;;;;9.27;6.13;;;19.20;99.90;;;;;;5092867;28;20496;-71
2023/08/12 03:20:11;;;;;;;9.20;6.97;;;19.20;99.90;;;;;;5093720;28;20097;-71
2023/08/12 03:22:37;;;;;;;12.10;7.03;;;19.20;99.90;;;;;;5096474;28;20353;-72
2023/08/12 03:25:04;;;;;;;10.37;7.17;;;19.20;99.90;;;;;;5096641;28;20080;-71
2023/08/12 03:27:30;;;;;;;12.17;6.80;;;19.20;99.90;;;;;;5095410;28;20127;-71
2023/08/12 03:29:56;;;;;;;11.53;7.27;;;19.30;99.90;;;;;;5096438;28;20169;-71
2023/08/12 03:32:22;;;;;;;11.53;7.37;;;19.30;99.90;;;;;;5096203;28;20422;-72
2023/08/12 03:34:48;;;;;;;8.93;6.53;;;19.30;99.90;;;;;;5095530;28;20044;-71
2023/08/12 03:37:13;;;;;;;12.53;7.73;;;19.30;99.90;;;;;;5096378;28;20483;-71
2023/08/12 03:39:39;;;;;;;9.43;6.67;;;19.20;99.90;;;;;;5094993;28;20044;-71
2023/08/12 03:42:05;;;;;;;12.57;7.13;;;19.30;99.90;;;;;;5095336;28;20078;-71
2023/08/12 03:44:31;;;;;;;11.27;6.63;;;19.30;99.90;;;;;;5096044;28;20046;-72
2023/08/12 03:46:56;;;;;;;9.93;7.13;;;19.30;99.90;;;;;;5096541;28;20051;-71
2023/08/12 03:49:22;;;;;;;10.27;7.13;;;19.30;99.90;;;;;;5096190;28;20075;-71
2023/08/12 03:51:48;;;;;;;12.27;7.07;;;19.30;99.90;;;;;;5096362;28;20040;-71
2023/08/12 03:54:13;;;;;;;10.93;6.70;;;19.30;99.90;;;;;;5096348;28;20040;-71
2023/08/12 03:56:39;;;;;;;10.13;6.93;;;19.20;99.90;;;;;;5095809;28;20086;-72
2023/08/12 03:59:05;;;;;;;9.57;6.67;;;19.20;99.90;;;;;;5095961;28;20048;-71
2023/08/12 04:01:31;;;;;;;10.33;6.00;;;19.30;99.90;;;;;;5094567;28;20039;-71
2023/08/12 04:03:56;;;;;;;12.17;6.83;;;19.30;99.90;;;;;;5094785;28;20039;-72
2023/08/12 04:06:22;;;;;;;10.47;6.70;;;19.30;99.90;;;;;;5095961;28;20375;-72
2023/08/12 04:08:48;;;;;;;11.10;6.47;;;19.30;99.90;;;;;;5094637;28;20047;-72
2023/08/12 04:11:13;;;;;;;11.20;7.17;;;19.30;99.90;;;;;;5095761;28;20032;-71
2023/08/12 04:13:39;;;;;;;10.40;7.27;;;19.30;99.90;;;;;;5095545;28;20506;-72
2023/08/12 04:16:05;;;;;;;10.77;6.50;;;19.40;99.90;;;;;;5095715;28;20047;-71
2023/08/12 04:18:30;;;;;;;9.17;6.73;;;19.30;99.90;;;;;;5094235;28;20048;-72
2023/08/12 04:20:56;;;;;;;12.20;6.63;;;19.30;99.90;;;;;;5095616;28;20078;-71
2023/08/12 04:23:22;;;;;;;10.53;6.73;;;19.30;99.90;;;;;;5095541;28;20109;-71
2023/08/12 04:25:48;;;;;;;16.13;7.57;;;19.40;99.90;;;;;;5094024;28;20044;-71
2023/08/12 04:28:15;;;;;;;11.30;6.77;;;19.40;99.90;;;;;;5095492;28;20054;-71
2023/08/12 04:30:45;;;;;;;11.33;6.70;;;19.40;99.90;;;;;;5094809;28;20052;-72
2023/08/12 04:33:12;;;;;;;9.17;6.60;;;19.40;99.90;;;;;;5095630;28;20080;-71
2023/08/12 04:35:39;;;;;;;11.90;6.67;;;19.40;99.90;;;;;;5095155;28;20036;-71
2023/08/12 04:38:04;;;;;;;11.67;6.23;;;19.40;99.90;;;;;;5095460;28;20036;-71
2023/08/12 04:40:31;;;;;;;15.37;7.90;;;19.40;99.90;;;;;;5095152;28;20058;-72
2023/08/12 04:42:58;;;;;;;11.67;6.97;;;19.40;99.90;;;;;;5095185;28;20086;-71
2023/08/12 04:45:24;;;;;;;9.13;6.20;;;19.40;99.90;;;;;;5095117;28;20044;-71
2023/08/12 04:47:49;;;;;;;11.57;7.17;;;19.40;99.90;;;;;;5094843;28;20502;-71
2023/08/12 04:50:15;;;;;;;9.67;7.17;;;19.50;99.90;;;;;;5094026;28;20480;-71
2023/08/12 04:52:41;;;;;;;10.73;6.30;;;19.40;99.90;;;;;;5094706;28;20040;-71
2023/08/12 04:55:07;;;;;;;11.97;5.70;;;19.50;99.90;;;;;;5094040;28;20054;-71
2023/08/12 04:57:33;;;;;;;14.33;6.40;;;19.50;99.90;;;;;;5094391;28;20040;-72
2023/08/12 04:59:59;;;;;;;10.17;6.20;;;19.50;99.90;;;;;;5095005;28;20061;-71
2023/08/12 05:02:24;;;;;;;11.07;6.23;;;19.50;99.90;;;;;;5093679;28;20042;-71
2023/08/12 05:04:51;;;;;;;9.03;5.77;;;19.50;99.90;;;;;;5094189;28;20384;-72
2023/08/12 05:07:17;;;;;;;10.17;6.03;;;19.50;99.90;;;;;;5077087;28;20097;-71
2023/08/12 05:09:44;;;;;;;11.97;6.37;;;19.60;99.90;;;;;;5094476;28;20071;-72
2023/08/12 05:12:11;;;;;;;13.03;6.43;;;19.60;99.90;;;;;;5093631;28;20111;-71
2023/08/12 05:14:37;;;;;;;9.60;6.00;;;19.60;99.90;;;;;;5076341;28;20470;-71
2023/08/12 05:17:03;;;;;;;9.70;5.83;;;19.60;99.90;;;;;;5094469;28;20081;-71
2023/08/12 05:19:29;;;;;;;9.97;6.00;;;19.70;99.90;;;;;;5094447;28;20043;-71
2023/08/12 05:21:54;;;;;;;10.50;6.20;;;19.70;99.90;;;;;;5093179;28;20043;-71
2023/08/12 05:24:20;;;;;;;12.33;6.50;;;19.80;99.90;;;;;;5094349;28;20043;-71
2023/08/12 05:26:46;;;;;;;11.87;6.13;;;19.80;99.90;;;;;;5094253;28;20097;-72
2023/08/12 05:29:12;;;;;;;9.60;6.37;;;19.80;99.90;;;;;;5094573;28;20507;-71
2023/08/12 05:31:38;;;;;;;11.60;6.53;;;19.90;99.90;;;;;;5093487;28;20079;-72
2023/08/12 05:34:04;;;;;;;9.93;6.73;;;19.90;99.90;;;;;;5094412;28;20047;-72
2023/08/12 05:36:30;;;;;;;12.60;6.87;;;19.90;99.90;;;;;;5094136;28;20097;-71
2023/08/12 05:38:55;;;;;;;7.93;5.90;;;19.90;99.90;;;;;;5093880;28;20035;-71
2023/08/12 05:41:21;;;;;;;10.33;6.33;;;20.00;99.90;;;;;;5093968;28;20118;-72
2023/08/12 05:43:48;;;;;;;9.83;6.43;;;20.00;99.90;;;;;;5093221;28;20059;-72
2023/08/12 05:46:14;;;;;;;16.33;7.47;;;20.00;99.90;;;;;;5094248;28;20098;-72
2023/08/12 05:48:40;;;;;;;12.77;7.17;;;20.00;99.90;;;;;;5093818;28;20475;-72
2023/08/12 05:51:05;;;;;;;13.67;7.60;;;20.00;99.90;;;;;;5110110;28;20044;-71
2023/08/12 05:53:32;;;;;;;12.53;7.67;;;20.00;99.90;;;;;;5092701;28;20426;-71
2023/08/12 05:55:58;;;;;;;11.37;7.60;;;20.00;99.90;;;;;;5093675;28;20071;-72
2023/08/12 05:58:24;;;;;;;11.37;7.80;;;20.00;99.90;;;;;;5093761;28;20491;-71
2023/08/12 06:00:50;;;;;;;12.73;6.93;;;20.00;99.90;;;;;;5092643;28;20044;-72
2023/08/12 06:03:16;;;;;;;12.80;7.63;;;20.10;99.90;;;;;;5092516;28;20047;-71
2023/08/12 06:05:45;;;;;;;10.17;7.17;;;20.10;99.90;;;;;;5093213;28;20547;-72
2023/08/12 06:08:11;;;;;;;12.27;7.83;;;20.10;99.90;;;;;;5094011;28;20138;-72
2023/08/12 06:10:36;;;;;;;13.13;8.27;;;20.20;99.90;;;;;;5093442;28;20532;-72
2023/08/12 06:13:02;;;;;;;14.93;8.37;;;20.10;99.90;;;;;;5093320;28;20123;-72
2023/08/12 06:15:28;;;;;;;13.47;8.57;;;20.10;99.90;;;;;;5093723;28;20160;-72
2023/08/12 06:17:54;;;;;;;13.67;9.10;;;20.20;99.90;;;;;;5092114;28;20164;-72
2023/08/12 06:20:20;;;;;;;14.07;10.03;;;20.10;99.90;;;;;;5092500;28;20044;-72
2023/08/12 06:22:45;;;;;;;14.77;8.67;;;20.10;99.90;;;;;;5093588;28;20040;-72
2023/08/12 06:25:11;;;;;;;11.47;9.03;;;20.10;99.90;;;;;;5092337;28;20055;-72
2023/08/12 06:27:38;;;;;;;14.97;8.37;;;20.20;99.90;;;;;;5093312;28;20376;-71
2023/08/12 06:30:05;;;;;;;15.13;9.17;;;20.20;99.90;;;;;;5092986;28;20040;-72
2023/08/12 06:32:33;;;;;;;14.20;8.87;;;20.20;99.90;;;;;;5093566;28;20127;-71
2023/08/12 06:34:59;;;;;;;17.60;9.33;;;20.20;99.90;;;;;;5092018;28;20364;-72
2023/08/12 06:37:24;;;;;;;14.87;10.03;;;20.30;99.90;;;;;;5092113;28;20051;-71
2023/08/12 06:39:50;;;;;;;14.57;9.93;;;20.30;99.90;;;;;;5093024;28;20039;-72
2023/08/12 06:42:16;;;;;;;16.70;10.13;;;20.30;99.90;;;;;;5093433;28;20043;-72
2023/08/12 06:44:42;;;;;;;14.93;10.47;;;20.30;99.90;;;;;;5093167;28;20044;-72
2023/08/12 06:47:07;;;;;;;13.00;9.57;;;20.40;99.90;;;;;;5093554;28;20130;-72
2023/08/12 06:49:33;;;;;;;14.63;9.87;;;20.40;99.90;;;;;;5091995;28;20040;-72
2023/08/12 06:51:59;;;;;;;14.90;10.53;;;20.40;99.90;;;;;;5092805;28;20040;-72
2023/08/12 06:54:25;;;;;;;16.37;10.70;;;20.40;99.90;;;;;;5094375;28;20077;-72
2023/08/12 06:56:50;;;;;;;16.23;10.57;;;20.50;99.90;;;;;;5096961;28;20048;-72
2023/08/12 06:59:17;;;;;;;15.47;10.53;;;20.50;99.90;;;;;;5097009;28;20051;-72
2023/08/12 07:01:42;;;;;;;17.70;11.43;;;20.50;99.90;;;;;;5095933;28;20093;-72
2023/08/12 07:04:08;;;;;;;17.70;10.33;;;20.50;99.90;;;;;;5096837;28;20130;-72
2023/08/12 07:06:34;;;;;;;16.87;11.53;;;20.50;99.90;;;;;;5097099;28;20460;-72
2023/08/12 07:08:59;;;;;;;17.57;11.03;;;20.50;99.90;;;;;;5112510;28;20116;-72
2023/08/12 07:11:25;;;;;;;15.67;11.60;;;20.60;99.90;;;;;;5097112;28;20032;-72
2023/08/12 07:13:51;;;;;;;15.10;12.17;;;20.60;99.90;;;;;;5095608;28;20502;-72
2023/08/12 07:16:16;;;;;;;14.87;11.67;;;20.60;99.90;;;;;;5096986;28;20050;-72
2023/08/12 07:18:42;;;;;;;16.37;11.30;;;20.60;99.90;;;;;;5112799;28;20067;-72
2023/08/12 07:21:08;;;;;;;18.00;11.87;;;20.60;99.90;;;;;;5096536;28;20475;-72
2023/08/12 07:23:33;;;;;;;16.50;11.47;;;20.60;99.90;;;;;;5096716;28;20040;-72
2023/08/12 07:25:59;;;;;;;14.47;11.13;;;20.60;99.90;;;;;;5096394;28;20413;-72
2023/08/12 07:28:25;;;;;;;16.30;10.80;;;20.60;99.90;;;;;;5095467;28;20127;-72
2023/08/12 07:30:52;;;;;;;17.53;11.13;;;20.60;99.90;;;;;;5096347;28;20487;-72
2023/08/12 07:33:19;;;;;;;16.93;11.00;;;20.70;99.90;;;;;;5096522;28;20519;-72
2023/08/12 07:35:44;;;;;;;19.53;11.87;;;20.70;99.90;;;;;;5096492;28;20058;-72
2023/08/12 07:38:10;;;;;;;15.90;12.47;;;20.70;99.90;;;;;;5096181;28;20464;-72
2023/08/12 07:40:36;;;;;;;16.47;10.53;;;20.70;99.90;;;;;;5096346;28;20056;-72
2023/08/12 07:43:02;;;;;;;14.57;10.80;;;20.70;99.90;;;;;;5096042;28;20036;-72
2023/08/12 07:45:27;;;;;;;16.70;11.50;;;20.70;99.90;;;;;;5096512;28;20039;-72
2023/08/12 07:47:53;;;;;;;14.60;10.43;;;20.70;99.90;;;;;;5096123;28;20601;-72
2023/08/12 07:50:19;;;;;;;18.13;11.80;;;20.70;99.90;;;;;;5096161;28;20052;-72
2023/08/12 07:52:45;;;;;;;15.37;11.13;;;20.70;99.90;;;;;;5096005;28;20097;-72
2023/08/12 07:55:12;;;;;;;15.40;10.63;;;20.80;99.90;;;;;;5095878;28;20066;-72
2023/08/12 07:57:38;;;;;;;15.90;10.77;;;20.80;99.90;;;;;;5096055;28;20044;-72
2023/08/12 08:00:05;;;;;;;15.13;10.40;;;20.80;99.90;;;;;;5095793;28;20040;-72
2023/08/12 08:02:30;;;;;;;17.83;11.20;;;20.80;99.90;;;;;;5096111;28;20036;-72
2023/08/12 08:04:57;;;;;;;15.77;11.33;;;20.70;99.90;;;;;;5095339;28;20044;-72
2023/08/12 08:07:23;;;;;;;17.10;12.57;;;20.70;99.90;;;;;;5095485;28;20082;-72
2023/08/12 08:09:50;;;;;;;13.90;10.13;;;20.70;99.90;;;;;;5094675;28;20398;-72
2023/08/12 08:12:16;;;;;;;18.00;12.33;;;20.70;99.90;;;;;;5095502;28;20047;-72
2023/08/12 08:14:42;;;;;;;15.20;12.67;;;20.60;99.90;;;;;;5095917;28;20135;-72
2023/08/12 08:17:08;;;;;;;21.73;12.93;;;20.60;99.90;;;;;;5094255;28;20434;-72
2023/08/12 08:19:34;;;;;;;21.77;13.50;;;20.60;99.90;;;;;;5095535;28;20093;-73
2023/08/12 08:22:00;;;;;;;20.27;14.70;;;20.50;99.90;;;;;;5095434;28;20040;-73
2023/08/12 08:24:26;;;;;;;24.23;15.10;;;20.50;99.90;;;;;;5094534;28;20083;-73
2023/08/12 08:26:52;;;;;;;21.90;15.10;;;20.50;99.90;;;;;;5095528;28;20044;-73
2023/08/12 08:29:17;;;;;;;24.43;16.07;;;20.50;99.90;;;;;;5095214;28;20349;-74
2023/08/12 08:31:43;;;;;;;23.20;15.50;;;20.40;99.90;;;;;;5095372;28;20048;-74
2023/08/12 08:34:09;;;;;;;19.07;15.10;;;20.40;99.90;;;;;;5095105;28;20427;-73
2023/08/12 08:36:36;;;;;;;22.37;16.07;;;20.40;99.90;;;;;;5095428;28;20055;-73
2023/08/12 08:39:02;;;;;;;22.27;16.77;;;20.40;99.90;;;;;;5095225;28;20067;-72
2023/08/12 08:41:31;;;;;;;23.40;16.87;;;20.40;99.90;;;;;;5095256;28;20055;-72
2023/08/12 08:44:03;;;;;;;25.80;17.27;;;20.30;99.90;;;;;;5095003;28;20104;-72
2023/08/12 08:46:29;;;;;;;22.13;16.23;;;20.40;99.90;;;;;;5095302;28;20051;-72
2023/08/12 08:48:58;;;;;;;32.53;20.20;;;20.40;99.90;;;;;;5095220;28;20380;-72
2023/08/12 08:51:25;;;;;;;30.67;19.80;;;20.50;99.90;;;;;;5094986;28;20032;-72
2023/08/12 08:53:54;;;;;;;24.20;18.63;;;20.50;99.90;;;;;;5093835;28;20133;-72
2023/08/12 08:56:21;;;;;;;28.90;19.57;;;20.60;99.90;;;;;;5094703;28;20044;-72
2023/08/12 08:58:47;;;;;;;27.43;20.23;;;20.60;99.90;;;;;;5094958;28;20062;-72
2023/08/12 09:01:14;;;;;;;28.83;20.33;;;20.70;99.90;;;;;;5094582;28;20468;-72
2023/08/12 09:03:41;;;;;;;27.37;18.70;;;20.70;99.90;;;;;;5094698;28;20044;-72
2023/08/12 09:06:07;;;;;;;25.37;19.90;;;20.70;99.90;;;;;;5093538;28;20073;-72
2023/08/12 09:08:33;;;;;;;26.53;20.07;;;20.70;99.90;;;;;;5094800;28;20044;-72
2023/08/12 09:11:02;;;;;;;24.87;19.90;;;20.60;99.90;;;;;;5094359;28;20556;-72
2023/08/12 09:13:29;;;;;;;29.03;20.33;;;20.70;99.90;;;;;;5110588;28;20416;-72
2023/08/12 09:15:56;;;;;;;25.00;20.53;;;20.60;99.90;;;;;;5094546;28;20480;-72
2023/08/12 09:18:24;;;;;;;26.80;20.10;;;20.60;99.90;;;;;;5093250;28;20044;-72
2023/08/12 09:20:53;;;;;;;26.97;20.43;;;20.60;99.90;;;;;;5094405;28;20036;-72
2023/08/12 09:23:19;;;;;;;31.30;21.57;;;20.60;99.90;;;;;;5094205;28;20055;-72
2023/08/12 09:25:45;;;;;;;30.80;21.87;;;20.60;99.90;;;;;;5093102;28;20036;-72
2023/08/12 09:28:12;;;;;;;24.27;19.83;;;20.60;99.90;;;;;;5076239;28;20047;-72
2023/08/12 09:30:39;;;;;;;30.10;21.33;;;20.50;99.90;;;;;;5094291;28;20105;-72
2023/08/12 09:33:07;;;;;;;24.97;19.30;;;20.50;99.90;;;;;;5093932;28;20044;-73
2023/08/12 09:35:44;;;;;;;33.60;20.63;;;20.50;99.90;;;;;;5093197;28;20448;-73
2023/08/12 09:38:13;;;;;;;25.73;20.47;;;20.50;99.90;;;;;;5094042;28;20040;-73
2023/08/12 09:40:40;;;;;;;27.47;19.77;;;20.40;99.90;;;;;;5094144;28;20131;-72
2023/08/12 09:43:06;;;;;;;32.30;21.73;;;20.40;99.90;;;;;;5093918;28;20032;-73
2023/08/12 09:45:33;;;;;;;28.20;20.33;;;20.40;99.90;;;;;;5109925;28;20044;-73
2023/08/12 09:47:59;;;;;;;28.83;20.77;;;20.40;99.90;;;;;;5093998;28;20081;-73
2023/08/12 09:50:26;;;;;;;28.90;20.40;;;20.50;99.90;;;;;;5093770;28;20044;-73
2023/08/12 09:52:52;;;;;;;26.27;20.07;;;20.40;99.90;;;;;;5093821;28;20032;-73
2023/08/12 09:55:20;;;;;;;25.53;19.40;;;20.50;99.90;;;;;;5093673;28;20044;-73
2023/08/12 09:57:50;;;;;;;26.30;19.47;;;20.50;99.90;;;;;;5093853;28;20173;-73
2023/08/12 10:00:18;;;;;;;21.20;17.27;;;20.60;99.90;;;;;;5093640;28;20040;-73
2023/08/12 10:02:48;;;;;;;19.80;16.83;;;20.60;99.90;;;;;;5093781;28;20047;-73
2023/08/12 10:05:32;;;;;;;17.27;13.93;;;20.60;99.90;;;;;;5093607;28;20044;-72
2023/08/12 10:07:58;;;;;;;17.97;13.70;;;20.60;99.90;;;;;;5092473;28;20464;-72
2023/08/12 10:10:25;;;;;;;17.03;13.83;;;20.60;99.90;;;;;;5093471;28;20043;-72
2023/08/12 10:12:51;;;;;;;16.90;13.27;;;20.70;99.90;;;;;;5093485;28;20040;-72
2023/08/12 10:15:18;;;;;;;16.50;13.50;;;20.60;99.90;;;;;;5093404;28;20122;-72
2023/08/12 10:17:45;;;;;;;16.17;12.97;;;20.60;99.90;;;;;;5092280;28;20375;-72
2023/08/12 10:20:24;;;;;;;18.60;13.80;;;20.60;99.90;;;;;;5093302;28;20160;-72
2023/08/12 10:22:51;;;;;;;16.37;12.27;;;20.60;99.90;;;;;;5093505;28;20127;-72
2023/08/12 10:25:19;;;;;;;16.27;13.23;;;20.60;99.90;;;;;;5075359;28;20043;-72
2023/08/12 10:27:45;;;;;;;19.23;13.67;;;20.70;99.90;;;;;;5093529;28;20044;-72
2023/08/12 10:30:13;;;;;;;14.33;11.50;;;20.70;99.90;;;;;;5092585;28;20494;-72
2023/08/12 10:32:39;;;;;;;14.43;10.70;;;20.70;99.90;;;;;;5093572;28;20070;-72
2023/08/12 10:35:05;;;;;;;11.03;8.47;;;20.70;99.90;;;;;;5093308;28;20044;-72
2023/08/12 10:37:33;;;;;;;9.93;4.80;;;20.70;99.90;;;;;;5093040;28;20047;-71
2023/08/12 10:39:59;;;;;;;8.23;3.03;;;20.50;99.90;;;;;;5092329;28;20056;-72
2023/08/12 10:42:42;;;;;;;9.10;3.00;;;20.30;99.90;;;;;;5093030;28;20118;-72
2023/08/12 10:45:09;;;;;;;7.97;2.87;;;20.00;99.90;;;;;;5075243;28;20074;-73
2023/08/12 10:47:44;;;;;;;11.20;2.80;;;19.80;99.90;;;;;;5093097;28;20098;-73
2023/08/12 10:50:19;;;;;;;;;;;19.60;99.90;;;;;;5093849;28;20101;-73
2023/08/12 10:52:46;;;;;;;13.65;3.55;;;19.40;99.90;;;;;;5093086;28;19927;-74
2023/08/12 10:55:24;;;;;;;8.87;3.00;;;19.30;99.90;;;;;;5093150;28;20040;-74
2023/08/12 10:57:52;;;;;;;7.60;2.67;;;19.20;99.90;;;;;;5093300;28;20071;-74
2023/08/12 11:00:23;;;;;;;11.90;2.80;;;19.10;99.90;;;;;;5092821;28;20048;-74
2023/08/12 11:02:54;;;;;;;8.23;2.97;;;19.00;99.90;;;;;;5093359;28;20101;-74
2023/08/12 11:05:20;;;;;;;7.80;2.80;;;19.00;99.90;;;;;;5092816;28;20055;-73
2023/08/12 11:07:51;;;;;;;10.80;3.60;;;19.10;99.90;;;;;;5092978;28;20040;-73
2023/08/12 11:10:21;;;;;;;10.13;3.20;;;19.10;99.90;;;;;;5092800;28;20122;-73
2023/08/12 11:12:54;;;;;;;8.50;3.30;;;19.10;99.90;;;;;;5092541;28;20376;-73
2023/08/12 11:15:38;;;;;;;8.90;3.17;;;19.10;99.90;;;;;;5092714;28;20052;-73
2023/08/12 11:18:08;;;;;;;9.68;3.40;;;19.20;99.90;;;;;;5093179;28;20044;-72
2023/08/12 11:20:34;;;;;;;10.10;3.23;;;19.20;99.90;;;;;;5092638;28;20091;-73
2023/08/12 11:23:01;;;;;;;9.77;3.47;;;19.30;99.90;;;;;;5092803;28;20036;-73
2023/08/12 11:25:31;;;;;;;10.23;3.10;;;19.30;99.90;;;;;;5091686;28;20044;-73
2023/08/12 11:27:58;;;;;;;10.03;4.23;;;19.40;99.90;;;;;;5093107;28;20097;-72
2023/08/12 11:30:24;;;;;;;10.23;3.30;;;19.40;99.90;;;;;;5092447;28;20040;-72
2023/08/12 11:32:51;;;;;;;7.50;2.83;;;19.40;99.90;;;;;;5091914;28;20054;-72
2023/08/12 11:35:18;;;;;;;9.87;3.10;;;19.40;99.90;;;;;;5108193;28;20036;-72
2023/08/12 11:37:46;;;;;;;7.80;3.23;;;19.40;99.90;;;;;;5092775;28;20036;-71
2023/08/12 11:40:16;;;;;;;8.70;3.50;;;19.40;99.90;;;;;;5092696;28;20056;-71
2023/08/12 11:42:46;;;;;;;8.17;2.77;;;19.40;99.90;;;;;;5096004;28;20040;-71
2023/08/12 11:45:14;;;;;;;8.83;3.27;;;19.50;99.90;;;;;;5096370;28;20051;-71
2023/08/12 11:47:41;;;;;;;9.37;3.27;;;19.50;99.90;;;;;;5095067;28;20048;-71
2023/08/12 11:50:11;;;;;;;10.03;3.10;;;19.60;99.90;;;;;;5096257;28;20047;-71
2023/08/12 11:52:38;;;;;;;9.27;3.57;;;19.60;99.90;;;;;;5094760;28;20032;-71
2023/08/12 11:55:07;;;;;;;14.27;3.57;;;19.60;99.90;;;;;;5095743;28;20067;-71
2023/08/12 11:57:36;;;;;;;10.83;3.63;;;19.60;99.90;;;;;;5095866;28;20039;-71
2023/08/12 12:00:18;;;;;;;9.40;4.03;;;19.60;99.90;;;;;;5096089;28;20130;-71
2023/08/12 12:02:51;;;;;;;10.33;3.90;;;19.60;99.90;;;;;;5096169;28;20116;-71
2023/08/12 12:05:20;;;;;;;8.40;3.80;;;19.80;99.90;;;;;;5096049;28;20040;-71
2023/08/12 12:07:49;;;;;;;10.23;4.37;;;19.90;99.90;;;;;;5095984;28;20040;-71
2023/08/12 12:10:36;;;;;;;10.30;3.90;;;20.10;99.90;;;;;;5095844;28;20048;-71
2023/08/12 12:13:04;;;;;;;10.87;4.23;;;20.20;99.90;;;;;;5095939;28;20044;-71
2023/08/12 12:15:31;;;;;;;10.17;4.40;;;20.30;99.90;;;;;;5094595;28;20059;-71
2023/08/12 12:17:58;;;;;;;8.43;3.57;;;20.40;99.90;;;;;;5095781;28;20044;-71
2023/08/12 12:20:24;;;;;;;9.33;4.30;;;20.50;99.90;;;;;;5095613;28;20044;-71
2023/08/12 12:22:49;;;;;;;9.63;3.60;;;20.60;99.90;;;;;;5095859;28;20328;-71
2023/08/12 12:25:18;;;;;;;10.07;3.50;;;20.70;99.90;;;;;;5095568;28;20130;-71
2023/08/12 12:27:46;;;;;;;9.27;3.40;;;20.80;99.90;;;;;;5095414;28;20040;-71
2023/08/12 12:30:13;;;;;;;8.77;3.50;;;20.90;99.90;;;;;;5095253;28;20139;-71
2023/08/12 12:32:39;;;;;;;9.27;3.00;;;20.90;99.90;;;;;;5094046;28;20090;-71
2023/08/12 12:35:09;;;;;;;10.70;3.37;;;21.10;99.90;;;;;;5095166;28;20466;-71
2023/08/12 12:37:36;;;;;;;8.20;3.47;;;21.10;99.90;;;;;;5095130;28;20480;-71